createdAt,value
2019-05-23T00:00:51.719Z,86.37
2019-05-23T00:03:44.679Z,85.86
2019-05-23T00:06:36.035Z,85.76
2019-05-23T00:09:26.167Z,86.06
2019-05-23T00:12:02.454Z,85.93
2019-05-23T00:14:48.099Z,86.71
2019-05-23T00:17:20.798Z,87.04
2019-05-23T00:19:53.118Z,86.63
2019-05-23T00:22:25.080Z,86.27
2019-05-23T00:24:57.379Z,85.70
2019-05-23T00:27:30.512Z,85.94
2019-05-23T00:30:03.921Z,86.66
2019-05-23T00:32:38.462Z,86.63
2019-05-23T00:35:13.177Z,87.23
2019-05-23T00:37:46.954Z,87.20
2019-05-23T00:40:19.277Z,87.70
2019-05-23T00:42:51.839Z,88.02
2019-05-23T00:45:24.242Z,88.59
2019-05-23T00:47:58.036Z,89.20
2019-05-23T00:50:29.922Z,89.71
2019-05-23T00:53:02.188Z,91.00
2019-05-23T00:55:35.886Z,90.52
2019-05-23T00:58:09.330Z,90.32
2019-05-23T01:00:41.870Z,90.56
2019-05-23T01:03:17.077Z,90.25
2019-05-23T01:05:48.861Z,90.11
2019-05-23T01:08:21.877Z,89.98
2019-05-23T01:10:55.177Z,89.68
2019-05-23T01:13:28.741Z,89.57
2019-05-23T01:16:01.368Z,90.40
2019-05-23T01:18:33.494Z,90.67
2019-05-23T01:21:23.416Z,90.83
2019-05-23T01:24:02.812Z,90.49
2019-05-23T01:26:34.748Z,90.72
2019-05-23T01:29:07.662Z,90.96
2019-05-23T01:31:41.252Z,91.12
2019-05-23T01:34:14.761Z,91.06
2019-05-23T01:36:46.909Z,91.41
2019-05-23T01:39:19.284Z,91.77
2019-05-23T01:41:51.222Z,91.21
2019-05-23T01:44:23.824Z,90.83
2019-05-23T01:46:56.496Z,90.68
2019-05-23T01:49:29.490Z,90.69
2019-05-23T01:52:01.324Z,90.80
2019-05-23T01:54:33.551Z,90.87
2019-05-23T01:57:06.431Z,91.10
2019-05-23T01:59:39.163Z,90.55
2019-05-23T02:02:11.413Z,91.62
2019-05-23T02:04:43.302Z,91.20
2019-05-23T02:07:16.516Z,90.68
2019-05-23T02:09:48.334Z,90.11
2019-05-23T02:12:20.580Z,90.30
2019-05-23T02:14:53.243Z,91.04
2019-05-23T02:17:26.441Z,91.53
2019-05-23T02:19:59.233Z,91.69
2019-05-23T02:22:32.141Z,91.29
2019-05-23T02:25:07.238Z,91.03
2019-05-23T02:27:40.344Z,90.50
2019-05-23T02:30:33.153Z,90.24
2019-05-23T02:32:53.014Z,90.42
2019-05-23T02:35:25.138Z,90.73
2019-05-23T02:38:10.331Z,91.13
2019-05-23T02:40:47.046Z,91.03
2019-05-23T02:43:26.830Z,90.87
2019-05-23T02:46:03.578Z,90.50
2019-05-23T02:48:39.100Z,90.34
2019-05-23T02:51:32.488Z,89.88
2019-05-23T02:54:07.408Z,89.65
2019-05-23T02:56:40.606Z,89.83
2019-05-23T02:59:27.052Z,89.85
2019-05-23T03:02:51.802Z,89.90
2019-05-23T03:05:25.979Z,90.34
2019-05-23T03:08:00.513Z,90.01
2019-05-23T03:10:54.769Z,90.17
2019-05-23T03:13:30.382Z,90.17
2019-05-23T03:16:02.477Z,90.17
2019-05-23T03:18:38.954Z,90.36
2019-05-23T03:21:12.339Z,91.20
2019-05-23T03:23:45.645Z,91.32
2019-05-23T03:26:35.727Z,91.69
2019-05-23T03:29:08.891Z,91.46
2019-05-23T03:31:59.996Z,91.42
2019-05-23T03:34:33.397Z,91.28
2019-05-23T03:37:06.950Z,91.32
2019-05-23T03:39:40.762Z,91.12
2019-05-23T03:42:13.441Z,91.34
2019-05-23T03:44:46.910Z,91.47
2019-05-23T03:47:20.497Z,91.29
2019-05-23T03:49:52.792Z,91.47
2019-05-23T03:52:25.588Z,91.49
2019-05-23T03:54:57.690Z,91.67
2019-05-23T03:57:30.869Z,91.35
2019-05-23T04:00:04.638Z,91.27
2019-05-23T04:02:37.426Z,91.13
2019-05-23T04:05:09.660Z,91.16
2019-05-23T04:07:42.670Z,90.79
2019-05-23T04:10:14.932Z,90.63
2019-05-23T04:12:47.536Z,90.49
2019-05-23T04:15:20.808Z,90.61
2019-05-23T04:17:53.437Z,90.55
2019-05-23T04:20:25.482Z,90.36
2019-05-23T04:22:57.614Z,90.29
2019-05-23T04:25:29.617Z,90.34
2019-05-23T04:28:02.249Z,90.20
2019-05-23T04:30:34.586Z,90.16
2019-05-23T04:33:06.788Z,89.65
2019-05-23T04:35:38.611Z,89.87
2019-05-23T04:38:11.981Z,90.12
2019-05-23T04:40:43.806Z,89.79
2019-05-23T04:43:15.647Z,90.06
2019-05-23T04:45:47.647Z,90.98
2019-05-23T04:48:19.477Z,91.61
2019-05-23T04:50:51.645Z,91.70
2019-05-23T04:53:24.808Z,91.79
2019-05-23T04:55:58.636Z,91.42
2019-05-23T04:58:31.344Z,91.17
2019-05-23T05:01:04.198Z,91.46
2019-05-23T05:03:37.833Z,91.47
2019-05-23T05:06:10.896Z,91.56
2019-05-23T05:08:42.995Z,91.29
2019-05-23T05:11:15.103Z,91.53
2019-05-23T05:13:47.231Z,91.66
2019-05-23T05:16:18.988Z,90.97
2019-05-23T05:18:50.826Z,91.54
2019-05-23T05:21:23.653Z,91.77
2019-05-23T05:23:55.698Z,91.23
2019-05-23T05:26:27.521Z,91.40
2019-05-23T05:28:59.456Z,91.04
2019-05-23T05:31:31.671Z,91.54
2019-05-23T05:34:03.755Z,92.26
2019-05-23T05:36:35.584Z,91.87
2019-05-23T05:39:09.485Z,91.63
2019-05-23T05:41:42.309Z,91.90
2019-05-23T05:44:14.526Z,91.87
2019-05-23T05:46:46.531Z,91.91
2019-05-23T05:49:18.288Z,92.47
2019-05-23T05:51:50.595Z,92.39
2019-05-23T05:54:22.707Z,91.76
2019-05-23T05:56:54.461Z,92.81
2019-05-23T05:59:26.302Z,93.62
2019-05-23T06:01:58.392Z,93.59
2019-05-23T06:04:30.699Z,93.24
2019-05-23T06:07:17.443Z,94.03
2019-05-23T06:09:50.851Z,93.51
2019-05-23T06:12:23.716Z,93.28
2019-05-23T06:14:55.558Z,93.18
2019-05-23T06:17:28.249Z,92.52
2019-05-23T06:20:00.197Z,93.33
2019-05-23T06:22:33.601Z,94.76
2019-05-23T06:25:08.834Z,94.72
2019-05-23T06:27:42.641Z,94.40
2019-05-23T06:30:17.297Z,94.57
2019-05-23T06:32:49.222Z,92.88
2019-05-23T06:35:21.463Z,92.31
2019-05-23T06:37:53.249Z,91.03
2019-05-23T06:40:26.342Z,90.99
2019-05-23T06:42:58.182Z,90.84
2019-05-23T06:45:30.474Z,90.78
2019-05-23T06:48:02.257Z,91.45
2019-05-23T06:50:35.554Z,89.46
2019-05-23T06:53:07.441Z,89.55
2019-05-23T06:55:39.220Z,88.89
2019-05-23T06:58:12.961Z,89.10
2019-05-23T07:00:45.099Z,88.81
2019-05-23T07:03:16.855Z,87.63
2019-05-23T07:05:49.318Z,85.40
2019-05-23T07:08:25.515Z,84.96
2019-05-23T07:10:57.365Z,83.07
2019-05-23T07:13:31.742Z,83.61
2019-05-23T07:16:05.249Z,83.06
2019-05-23T07:18:37.109Z,82.34
2019-05-23T07:21:10.630Z,80.14
2019-05-23T07:23:42.417Z,79.14
2019-05-23T07:26:14.388Z,79.42
2019-05-23T07:28:46.189Z,77.68
2019-05-23T07:31:18.202Z,76.54
2019-05-23T07:34:01.035Z,77.20
2019-05-23T07:36:23.646Z,77.43
2019-05-23T07:38:55.477Z,75.81
2019-05-23T07:41:27.285Z,74.46
2019-05-23T07:43:59.068Z,73.88
2019-05-23T07:46:31.196Z,73.25
2019-05-23T07:49:03.419Z,73.70
2019-05-23T07:51:35.678Z,73.21
2019-05-23T07:54:18.069Z,72.97
2019-05-23T07:56:50.138Z,71.72
2019-05-23T07:59:22.080Z,71.70
2019-05-23T08:02:05.060Z,70.09
2019-05-23T08:04:37.272Z,70.54
2019-05-23T08:07:10.881Z,70.52
2019-05-23T08:09:42.649Z,69.51
2019-05-23T08:12:14.586Z,66.55
2019-05-23T08:14:46.376Z,66.41
2019-05-23T08:17:18.174Z,66.26
2019-05-23T08:19:50.572Z,66.78
2019-05-23T08:22:22.587Z,66.57
2019-05-23T08:24:54.536Z,64.58
2019-05-23T08:27:26.998Z,66.48
2019-05-23T08:30:02.266Z,64.24
2019-05-23T08:32:33.600Z,62.82
2019-05-23T08:35:06.988Z,61.02
2019-05-23T08:37:39.809Z,61.44
2019-05-23T08:40:12.857Z,61.59
2019-05-23T08:42:45.866Z,61.92
2019-05-23T08:45:18.954Z,63.43
2019-05-23T08:47:51.114Z,61.76
2019-05-23T08:50:24.195Z,60.49
2019-05-23T08:52:55.974Z,58.76
2019-05-23T08:55:28.458Z,59.29
2019-05-23T08:58:00.695Z,59.97
2019-05-23T09:00:37.551Z,59.23
2019-05-23T09:03:10.872Z,60.28
2019-05-23T09:05:42.637Z,59.23
2019-05-23T09:08:16.999Z,59.04
2019-05-23T09:10:49.029Z,56.36
2019-05-23T09:13:21.250Z,60.21
2019-05-23T09:15:53.621Z,59.27
2019-05-23T09:18:25.814Z,56.05
2019-05-23T09:20:57.747Z,56.47
2019-05-23T09:23:29.529Z,56.27
2019-05-23T09:26:02.741Z,58.55
2019-05-23T09:28:35.189Z,57.70
2019-05-23T09:31:07.531Z,55.86
2019-05-23T09:33:39.410Z,57.68
2019-05-23T09:36:11.716Z,58.45
2019-05-23T09:38:43.474Z,58.01
2019-05-23T09:41:15.230Z,55.94
2019-05-23T09:43:47.156Z,56.23
2019-05-23T09:46:19.067Z,54.96
2019-05-23T09:48:50.835Z,55.47
2019-05-23T09:51:22.784Z,57.50
2019-05-23T09:53:54.634Z,58.01
2019-05-23T09:56:27.039Z,53.19
2019-05-23T09:58:58.988Z,54.36
2019-05-23T10:01:30.888Z,51.66
2019-05-23T10:04:03.413Z,53.52
2019-05-23T10:06:35.702Z,54.52
2019-05-23T10:09:09.203Z,54.69
2019-05-23T10:11:40.967Z,54.63
2019-05-23T10:14:29.376Z,54.57
2019-05-23T10:17:01.156Z,54.16
2019-05-23T10:19:33.994Z,51.12
2019-05-23T10:22:07.403Z,50.66
2019-05-23T10:24:39.176Z,48.51
2019-05-23T10:27:13.246Z,51.46
2019-05-23T10:29:45.018Z,46.01
2019-05-23T10:32:16.959Z,45.73
2019-05-23T10:34:48.733Z,46.41
2019-05-23T10:37:21.438Z,46.98
2019-05-23T10:39:55.854Z,47.25
2019-05-23T10:42:28.187Z,45.61
2019-05-23T10:44:59.960Z,45.53
2019-05-23T10:47:31.743Z,44.23
2019-05-23T10:50:09.739Z,46.70
2019-05-23T10:52:41.396Z,49.62
2019-05-23T10:55:13.413Z,50.46
2019-05-23T10:57:46.036Z,50.48
2019-05-23T11:00:19.872Z,47.66
2019-05-23T11:02:52.442Z,49.71
2019-05-23T11:05:24.289Z,49.09
2019-05-23T11:07:56.303Z,48.39
2019-05-23T11:10:29.060Z,48.52
2019-05-23T11:13:01.129Z,45.71
2019-05-23T11:15:32.907Z,47.52
2019-05-23T11:18:04.810Z,48.69
2019-05-23T11:20:37.271Z,50.40
2019-05-23T11:23:12.207Z,46.74
2019-05-23T11:25:44.317Z,44.23
2019-05-23T11:28:16.147Z,46.39
2019-05-23T11:30:58.674Z,45.73
2019-05-23T11:33:30.778Z,45.20
2019-05-23T11:36:02.732Z,44.01
2019-05-23T11:38:34.491Z,42.34
2019-05-23T11:41:06.264Z,43.31
2019-05-23T11:43:39.508Z,45.14
2019-05-23T11:46:15.700Z,48.33
2019-05-23T11:48:47.804Z,44.50
2019-05-23T11:51:24.506Z,45.17
2019-05-23T11:54:06.847Z,43.23
2019-05-23T11:56:27.734Z,41.64
2019-05-23T11:59:01.389Z,41.76
2019-05-23T12:01:36.115Z,40.18
2019-05-23T12:04:09.887Z,43.15
2019-05-23T12:06:55.491Z,40.16
2019-05-23T12:09:23.712Z,39.18
2019-05-23T12:11:55.477Z,40.27
2019-05-23T12:14:27.243Z,40.54
2019-05-23T12:16:59.026Z,42.55
2019-05-23T12:19:31.071Z,42.27
2019-05-23T12:22:03.887Z,41.36
2019-05-23T12:24:38.410Z,43.07
2019-05-23T12:27:11.115Z,43.55
2019-05-23T12:29:43.335Z,42.61
2019-05-23T12:32:15.098Z,39.54
2019-05-23T12:35:08.074Z,38.59
2019-05-23T12:37:21.142Z,40.13
2019-05-23T12:39:53.733Z,42.41
2019-05-23T12:42:25.514Z,40.30
2019-05-23T12:44:57.305Z,39.71
2019-05-23T12:47:30.709Z,40.07
2019-05-23T12:50:04.305Z,40.86
2019-05-23T12:52:36.075Z,39.65
2019-05-23T12:55:08.736Z,37.77
2019-05-23T12:57:40.738Z,40.93
2019-05-23T13:00:20.947Z,39.81
2019-05-23T13:02:52.707Z,39.51
2019-05-23T13:05:24.821Z,39.95
2019-05-23T13:07:56.611Z,39.61
2019-05-23T13:10:28.642Z,38.74
2019-05-23T13:13:00.784Z,38.36
2019-05-23T13:15:32.749Z,39.36
2019-05-23T13:18:05.421Z,42.94
2019-05-23T13:20:38.603Z,42.19
2019-05-23T13:23:20.295Z,40.53
2019-05-23T13:25:44.824Z,38.78
2019-05-23T13:28:16.629Z,40.66
2019-05-23T13:30:48.708Z,39.62
2019-05-23T13:33:21.306Z,39.64
2019-05-23T13:35:53.157Z,40.08
2019-05-23T13:38:24.925Z,35.81
2019-05-23T13:40:56.767Z,36.27
2019-05-23T13:43:29.217Z,36.95
2019-05-23T13:46:01.066Z,39.57
2019-05-23T13:48:32.895Z,39.58
2019-05-23T13:51:04.999Z,40.67
2019-05-23T13:53:36.838Z,41.01
2019-05-23T13:56:08.946Z,40.19
2019-05-23T13:58:40.782Z,37.65
2019-05-23T14:01:13.195Z,39.56
2019-05-23T14:03:46.421Z,38.23
2019-05-23T14:06:18.202Z,39.64
2019-05-23T14:08:49.961Z,41.33
2019-05-23T14:11:21.803Z,40.93
2019-05-23T14:13:59.479Z,40.63
2019-05-23T14:16:28.777Z,39.32
2019-05-23T14:19:01.151Z,38.51
2019-05-23T14:21:34.713Z,38.47
2019-05-23T14:24:07.012Z,38.10
2019-05-23T14:26:40.426Z,39.60
2019-05-23T14:29:12.185Z,39.76
2019-05-23T14:31:48.313Z,41.28
2019-05-23T14:34:20.070Z,41.45
2019-05-23T14:36:56.773Z,36.65
2019-05-23T14:39:30.545Z,37.95
2019-05-23T14:42:03.964Z,39.55
2019-05-23T14:44:35.877Z,41.26
2019-05-23T14:47:15.744Z,38.22
2019-05-23T14:49:55.122Z,41.90
2019-05-23T14:52:34.922Z,40.42
2019-05-23T14:55:10.838Z,41.18
2019-05-23T14:57:42.968Z,41.61
2019-05-23T15:00:14.973Z,41.47
2019-05-23T15:02:47.391Z,40.77
2019-05-23T15:05:19.302Z,40.22
2019-05-23T15:07:51.102Z,39.76
2019-05-23T15:10:22.837Z,38.59
2019-05-23T15:12:54.613Z,39.05
2019-05-23T15:15:26.582Z,40.42
2019-05-23T15:17:58.677Z,39.87
2019-05-23T15:20:30.786Z,38.54
2019-05-23T15:23:02.626Z,38.86
2019-05-23T15:25:34.397Z,38.96
2019-05-23T15:28:06.445Z,38.88
2019-05-23T15:30:38.349Z,38.21
2019-05-23T15:33:10.624Z,38.38
2019-05-23T15:35:42.542Z,39.25
2019-05-23T15:38:15.291Z,40.39
2019-05-23T15:40:47.053Z,38.85
2019-05-23T15:43:18.844Z,40.31
2019-05-23T15:45:50.730Z,36.45
2019-05-23T15:48:22.676Z,37.57
2019-05-23T15:50:54.710Z,37.88
2019-05-23T15:53:28.194Z,40.28
2019-05-23T15:56:16.786Z,39.50
2019-05-23T15:58:46.023Z,39.96
2019-05-23T16:01:38.136Z,39.42
2019-05-23T16:04:12.489Z,37.93
2019-05-23T16:06:44.801Z,38.93
2019-05-23T16:09:28.380Z,40.49
2019-05-23T16:11:50.547Z,41.58
2019-05-23T16:14:23.660Z,42.64
2019-05-23T16:16:57.254Z,41.94
2019-05-23T16:19:29.095Z,42.73
2019-05-23T16:22:01.398Z,41.49
2019-05-23T16:24:33.150Z,42.25
2019-05-23T16:27:06.430Z,41.36
2019-05-23T16:29:38.983Z,42.43
2019-05-23T16:32:11.568Z,43.18
2019-05-23T16:34:43.622Z,41.74
2019-05-23T16:37:16.217Z,39.85
2019-05-23T16:39:49.732Z,40.05
2019-05-23T16:42:21.860Z,40.04
2019-05-23T16:44:53.623Z,40.01
2019-05-23T16:47:25.967Z,40.13
2019-05-23T16:49:57.814Z,42.09
2019-05-23T16:52:29.583Z,40.09
2019-05-23T16:55:03.136Z,39.92
2019-05-23T16:57:54.889Z,40.11
2019-05-23T17:00:35.421Z,40.64
2019-05-23T17:03:24.926Z,40.17
2019-05-23T17:06:14.439Z,41.61
2019-05-23T17:08:59.716Z,41.48
2019-05-23T17:11:38.885Z,41.93
2019-05-23T17:14:31.090Z,41.30
2019-05-23T17:17:05.722Z,40.89
2019-05-23T17:19:46.931Z,41.09
2019-05-23T17:22:24.220Z,42.14
2019-05-23T17:24:57.637Z,43.73
2019-05-23T17:27:42.939Z,43.82
2019-05-23T17:30:16.892Z,43.77
2019-05-23T17:32:48.672Z,44.19
2019-05-23T17:35:20.449Z,44.99
2019-05-23T17:37:52.217Z,44.49
2019-05-23T17:40:25.634Z,45.17
2019-05-23T17:42:58.091Z,45.65
2019-05-23T17:45:30.510Z,45.15
2019-05-23T17:48:02.530Z,45.01
2019-05-23T17:50:35.412Z,44.75
2019-05-23T17:53:07.188Z,44.73
2019-05-23T17:55:39.157Z,45.63
2019-05-23T17:58:11.068Z,45.09
2019-05-23T18:00:44.507Z,45.11
2019-05-23T18:03:16.650Z,45.08
2019-05-23T18:05:48.517Z,44.78
2019-05-23T18:08:20.622Z,44.90
2019-05-23T18:10:52.545Z,45.17
2019-05-23T18:13:24.796Z,45.82
2019-05-23T18:15:57.491Z,45.71
2019-05-23T18:18:29.498Z,45.98
2019-05-23T18:21:01.784Z,46.46
2019-05-23T18:23:33.821Z,46.67
2019-05-23T18:26:07.918Z,47.08
2019-05-23T18:28:39.842Z,47.51
2019-05-23T18:31:14.004Z,47.78
2019-05-23T18:33:46.666Z,47.91
2019-05-23T18:36:19.427Z,48.13
2019-05-23T18:38:51.727Z,48.90
2019-05-23T18:41:24.556Z,49.78
2019-05-23T18:43:56.524Z,50.19
2019-05-23T18:46:29.935Z,50.53
2019-05-23T18:49:01.886Z,50.94
2019-05-23T18:51:33.996Z,52.03
2019-05-23T18:54:07.188Z,52.80
2019-05-23T18:56:39.445Z,54.54
2019-05-23T18:59:12.528Z,56.98
2019-05-23T19:01:44.386Z,57.55
2019-05-23T19:04:16.473Z,56.94
2019-05-23T19:06:49.127Z,56.31
2019-05-23T19:09:22.701Z,56.55
2019-05-23T19:11:54.709Z,58.71
2019-05-23T19:14:26.490Z,60.07
2019-05-23T19:16:58.664Z,61.65
2019-05-23T19:19:31.144Z,61.80
2019-05-23T19:22:04.053Z,62.84
2019-05-23T19:24:36.875Z,63.47
2019-05-23T19:27:09.912Z,63.28
2019-05-23T19:29:42.058Z,63.45
2019-05-23T19:32:14.149Z,63.29
2019-05-23T19:34:46.434Z,64.13
2019-05-23T19:37:18.571Z,64.33
2019-05-23T19:39:50.349Z,64.86
2019-05-23T19:42:22.251Z,65.70
2019-05-23T19:44:54.037Z,65.59
2019-05-23T19:47:26.652Z,65.42
2019-05-23T19:49:58.642Z,65.72
2019-05-23T19:52:31.535Z,65.58
2019-05-23T19:55:04.463Z,65.82
2019-05-23T19:57:37.326Z,66.08
2019-05-23T20:00:18.978Z,66.49
2019-05-23T20:02:55.124Z,66.83
2019-05-23T20:05:31.280Z,67.37
2019-05-23T20:08:03.119Z,67.29
2019-05-23T20:10:36.467Z,67.87
2019-05-23T20:13:08.687Z,67.68
2019-05-23T20:15:44.747Z,68.24
2019-05-23T20:18:14.461Z,68.55
2019-05-23T20:20:46.312Z,68.27
2019-05-23T20:23:18.161Z,68.42
2019-05-23T20:25:50.209Z,68.70
2019-05-23T20:28:22.466Z,68.21
2019-05-23T20:30:56.188Z,68.21
2019-05-23T20:33:28.040Z,68.29
2019-05-23T20:36:00.503Z,68.22
2019-05-23T20:38:32.264Z,68.40
2019-05-23T20:41:04.273Z,68.59
2019-05-23T20:43:36.153Z,68.33
2019-05-23T20:46:08.063Z,68.54
2019-05-23T20:48:40.168Z,68.81
2019-05-23T20:51:12.023Z,69.13
2019-05-23T20:53:44.249Z,69.34
2019-05-23T20:56:16.034Z,69.12
2019-05-23T20:58:47.953Z,69.16
2019-05-23T21:01:21.528Z,69.30
2019-05-23T21:03:54.771Z,69.50
2019-05-23T21:06:26.621Z,69.82
2019-05-23T21:08:58.664Z,69.87
2019-05-23T21:11:31.760Z,70.17
2019-05-23T21:14:03.525Z,70.44
2019-05-23T21:16:35.319Z,70.49
2019-05-23T21:19:07.157Z,70.32
2019-05-23T21:21:38.945Z,70.87
2019-05-23T21:24:10.998Z,71.24
2019-05-23T21:26:42.772Z,71.85
2019-05-23T21:29:14.861Z,71.76
2019-05-23T21:31:46.711Z,72.09
2019-05-23T21:34:21.898Z,72.25
2019-05-23T21:36:51.991Z,72.37
2019-05-23T21:39:23.992Z,72.60
2019-05-23T21:41:55.773Z,72.76
2019-05-23T21:44:27.660Z,72.64
2019-05-23T21:46:59.518Z,73.05
2019-05-23T21:49:31.298Z,72.82
2019-05-23T21:52:03.085Z,73.83
2019-05-23T21:54:34.931Z,73.51
2019-05-23T21:57:06.849Z,74.03
2019-05-23T21:59:38.621Z,74.56
2019-05-23T22:02:14.073Z,74.67
2019-05-23T22:04:47.562Z,75.04
2019-05-23T22:07:19.337Z,75.76
2019-05-23T22:09:51.120Z,75.82
2019-05-23T22:12:22.897Z,76.72
2019-05-23T22:14:56.285Z,76.40
2019-05-23T22:17:28.806Z,76.53
2019-05-23T22:20:00.583Z,76.84
2019-05-23T22:22:32.367Z,77.31
2019-05-23T22:25:04.947Z,77.10
2019-05-23T22:27:36.747Z,77.06
2019-05-23T22:30:08.750Z,77.65
2019-05-23T22:32:40.969Z,78.38
2019-05-23T22:35:14.880Z,78.29
2019-05-23T22:37:47.721Z,77.95
2019-05-23T22:40:19.511Z,77.56
2019-05-23T22:42:51.273Z,77.94
2019-05-23T22:45:24.771Z,77.70
2019-05-23T22:47:56.808Z,79.20
2019-05-23T22:50:28.722Z,78.73
2019-05-23T22:53:00.508Z,79.03
2019-05-23T22:55:32.704Z,79.01
2019-05-23T22:58:04.484Z,78.88
2019-05-23T23:00:37.912Z,78.29
2019-05-23T23:03:10.735Z,78.23
2019-05-23T23:05:42.534Z,78.42
2019-05-23T23:08:14.298Z,78.52
2019-05-23T23:10:46.072Z,78.29
2019-05-23T23:13:17.841Z,78.26
2019-05-23T23:15:50.009Z,78.37
2019-05-23T23:18:21.761Z,78.44
2019-05-23T23:20:54.320Z,78.70
2019-05-23T23:23:26.077Z,78.96
2019-05-23T23:25:57.856Z,79.38
2019-05-23T23:28:29.690Z,79.15
2019-05-23T23:31:01.941Z,79.86
2019-05-23T23:33:33.685Z,80.32
2019-05-23T23:36:05.464Z,80.80
2019-05-23T23:38:37.555Z,81.20
2019-05-23T23:41:09.402Z,80.87
2019-05-23T23:43:57.903Z,81.65
2019-05-23T23:46:33.193Z,81.32
2019-05-23T23:49:22.684Z,80.75
2019-05-23T23:52:12.243Z,80.55
2019-05-23T23:55:01.863Z,80.87
2019-05-23T23:57:51.543Z,80.54
